Time;durP1;ratioP1;P1;durP2;ratioP2;P2;SDS_P1;SDS_P2;PMS_P1;PMS_P2;Temp;Humidity;BMP_temperature;BMP_pressure;BME280_temperature;BME280_humidity;BME280_pressure;Samples;Min_cycle;Max_cycle;Signal;HPM_P1;HPM_P2
2024/01/28 00:01:39;;;;;;;7.93;2.72;;;;;;;;;;4958046;29;20071;-74
2024/01/28 00:04:04;;;;;;;10.70;2.53;;;;;;;;;;4956135;29;20076;-68
2024/01/28 00:06:30;;;;;;;8.63;2.53;;;;;;;;;;4956790;29;20119;-68
2024/01/28 00:08:55;;;;;;;7.22;2.45;;;;;;;;;;4956142;28;20469;-68
2024/01/28 00:11:21;;;;;;;9.75;2.55;;;;;;;;;;4956900;28;20392;-67
2024/01/28 00:13:47;;;;;;;8.70;2.50;;;;;;;;;;4956816;29;20106;-68
2024/01/28 00:16:14;;;;;;;9.88;2.38;;;;;;;;;;4957304;29;20027;-68
2024/01/28 00:18:39;;;;;;;6.50;2.03;;;;;;;;;;4958492;28;20022;-68
2024/01/28 00:21:05;;;;;;;9.73;2.53;;;;;;;;;;4947108;28;20117;-70
2024/01/28 00:23:30;;;;;;;6.80;2.78;;;;;;;;;;4964197;28;20031;-69
2024/01/28 00:25:57;;;;;;;5.05;2.08;;;;;;;;;;4965599;28;20024;-68
2024/01/28 00:28:22;;;;;;;7.93;3.10;;;;;;;;;;4963474;28;20094;-73
2024/01/28 00:30:48;;;;;;;7.28;2.38;;;;;;;;;;4964959;28;20123;-68
2024/01/28 00:33:13;;;;;;;6.28;2.30;;;;;;;;;;4964512;28;20030;-71
2024/01/28 00:35:39;;;;;;;6.28;2.50;;;;;;;;;;4965835;28;20034;-68
2024/01/28 00:38:05;;;;;;;6.03;2.28;;;;;;;;;;4963909;28;20027;-68
2024/01/28 00:40:31;;;;;;;6.05;2.13;;;;;;;;;;4979710;28;20023;-73
2024/01/28 00:42:57;;;;;;;6.78;2.40;;;;;;;;;;4963910;28;20047;-68
2024/01/28 00:45:23;;;;;;;5.43;2.30;;;;;;;;;;4947167;28;20061;-72
2024/01/28 00:47:48;;;;;;;4.60;2.10;;;;;;;;;;4966809;28;20027;-75
2024/01/28 00:50:14;;;;;;;5.47;2.30;;;;;;;;;;4965707;28;20022;-70
2024/01/28 00:52:40;;;;;;;7.28;2.13;;;;;;;;;;4963949;28;20113;-68
2024/01/28 00:55:06;;;;;;;5.85;2.25;;;;;;;;;;4961188;28;20023;-73
2024/01/28 00:57:31;;;;;;;9.13;2.15;;;;;;;;;;4964435;28;20427;-70
2024/01/28 00:59:58;;;;;;;8.43;2.95;;;;;;;;;;4965430;28;20110;-69
2024/01/28 01:02:23;;;;;;;9.98;2.50;;;;;;;;;;4963289;28;20500;-69
2024/01/28 01:04:49;;;;;;;7.40;2.35;;;;;;;;;;4964501;28;20050;-69
2024/01/28 01:07:15;;;;;;;5.07;2.05;;;;;;;;;;4963525;28;20106;-75
2024/01/28 01:09:41;;;;;;;8.88;2.70;;;;;;;;;;4968830;28;20031;-69
2024/01/28 01:12:06;;;;;;;5.20;2.15;;;;;;;;;;4965710;28;20032;-69
2024/01/28 01:14:35;;;;;;;6.60;2.30;;;;;;;;;;4973592;28;20034;-71
2024/01/28 01:17:04;;;;;;;10.10;2.67;;;;;;;;;;4986279;28;20031;-69
2024/01/28 01:19:30;;;;;;;9.45;2.38;;;;;;;;;;4972669;28;20027;-69
2024/01/28 01:21:57;;;;;;;10.20;2.17;;;;;;;;;;4954342;28;20096;-68
2024/01/28 01:24:23;;;;;;;12.60;2.38;;;;;;;;;;4972333;28;20023;-69
2024/01/28 01:26:48;;;;;;;9.05;2.45;;;;;;;;;;4972101;28;20027;-76
2024/01/28 11:34:29;;;;;;;2.00;1.30;;;;;;;;;;5814027;23;20521;-75
2024/01/28 11:36:55;;;;;;;2.17;1.40;;;;;;;;;;4975834;28;20113;-75
2024/01/28 11:39:27;;;;;;;2.90;1.30;;;;;;;;;;4975751;28;20029;-74
2024/01/28 11:41:53;;;;;;;1.88;1.48;;;;;;;;;;4975991;28;20141;-76
2024/01/28 11:44:19;;;;;;;1.73;1.17;;;;;;;;;;4979127;28;20035;-76
2024/01/28 11:46:45;;;;;;;2.63;1.52;;;;;;;;;;4978153;28;20098;-76
2024/01/28 11:49:11;;;;;;;1.55;1.17;;;;;;;;;;4975918;28;20034;-76
2024/01/28 11:51:37;;;;;;;1.40;1.10;;;;;;;;;;4976917;28;20026;-72
2024/01/28 11:54:04;;;;;;;2.17;1.30;;;;;;;;;;4974190;28;20093;-72
2024/01/28 11:56:36;;;;;;;2.25;1.30;;;;;;;;;;4975480;28;20027;-71
2024/01/28 11:59:03;;;;;;;1.83;1.33;;;;;;;;;;4975460;28;20027;-71
2024/01/28 12:01:29;;;;;;;2.10;1.38;;;;;;;;;;4975410;28;20054;-71
2024/01/28 12:03:55;;;;;;;1.75;1.48;;;;;;;;;;4975313;28;20027;-72
2024/01/28 12:06:22;;;;;;;1.42;1.10;;;;;;;;;;4975333;28;20109;-72
2024/01/28 12:08:49;;;;;;;2.08;1.33;;;;;;;;;;4969451;28;20071;-72
2024/01/28 12:11:20;;;;;;;1.58;1.20;;;;;;;;;;4964208;28;20546;-71
2024/01/28 12:13:46;;;;;;;1.70;1.20;;;;;;;;;;4964475;28;20546;-71
2024/01/28 12:16:12;;;;;;;3.28;1.25;;;;;;;;;;4965950;28;20098;-71
2024/01/28 12:18:39;;;;;;;2.60;1.38;;;;;;;;;;4963481;28;20390;-72
2024/01/28 12:21:26;;;;;;;1.83;1.27;;;;;;;;;;4955918;28;20058;-71
2024/01/28 12:24:04;;;;;;;1.17;1.02;;;;;;;;;;4962911;28;20650;-72
2024/01/28 12:26:34;;;;;;;1.50;1.17;;;;;;;;;;4968792;28;20037;-74
2024/01/28 12:29:01;;;;;;;2.25;1.40;;;;;;;;;;4966954;28;20057;-73
2024/01/28 12:31:27;;;;;;;2.13;1.40;;;;;;;;;;4969690;28;20031;-73
2024/01/28 12:33:54;;;;;;;1.90;1.33;;;;;;;;;;4968488;28;20069;-74
2024/01/28 12:36:20;;;;;;;1.75;1.27;;;;;;;;;;4973375;28;20070;-71
2024/01/28 12:38:45;;;;;;;1.58;1.20;;;;;;;;;;4973747;28;20462;-70
2024/01/28 12:41:11;;;;;;;1.40;1.15;;;;;;;;;;4974060;28;20034;-72
2024/01/28 12:43:38;;;;;;;4.38;1.67;;;;;;;;;;4974885;28;20443;-71
2024/01/28 12:46:04;;;;;;;5.45;1.55;;;;;;;;;;4974667;28;20019;-72
2024/01/28 12:48:30;;;;;;;2.42;1.60;;;;;;;;;;4974604;28;20030;-72
2024/01/28 12:50:55;;;;;;;3.80;1.90;;;;;;;;;;4974827;28;20026;-73
2024/01/28 12:53:21;;;;;;;9.43;2.38;;;;;;;;;;4974746;28;20139;-72
2024/01/28 12:55:47;;;;;;;10.07;1.88;;;;;;;;;;4969965;28;20038;-73
2024/01/28 12:58:13;;;;;;;4.50;1.98;;;;;;;;;;4971992;28;20031;-72
2024/01/28 13:00:42;;;;;;;3.42;1.88;;;;;;;;;;4972283;28;20057;-72
2024/01/28 13:03:08;;;;;;;5.60;2.42;;;;;;;;;;4973039;28;20031;-73
2024/01/28 13:05:34;;;;;;;5.50;2.13;;;;;;;;;;4971862;28;20098;-73
2024/01/28 13:08:00;;;;;;;5.47;2.20;;;;;;;;;;4971280;28;20496;-74
2024/01/28 13:10:25;;;;;;;6.78;2.00;;;;;;;;;;4968730;28;20058;-71
2024/01/28 13:12:51;;;;;;;8.45;2.72;;;;;;;;;;4971313;28;20035;-73
2024/01/28 13:15:17;;;;;;;3.63;1.85;;;;;;;;;;4973144;28;20503;-72
2024/01/28 13:17:42;;;;;;;5.35;1.95;;;;;;;;;;4966863;28;20023;-72
2024/01/28 13:20:11;;;;;;;3.35;2.25;;;;;;;;;;4973591;28;20562;-71
2024/01/28 13:22:41;;;;;;;4.35;2.20;;;;;;;;;;4974104;28;20034;-71
2024/01/28 13:25:17;;;;;;;5.82;2.40;;;;;;;;;;4974254;28;20034;-78
2024/01/28 13:27:42;;;;;;;5.28;2.35;;;;;;;;;;4972782;28;20089;-75
2024/01/28 13:30:09;;;;;;;4.68;1.88;;;;;;;;;;4973821;28;20027;-76
2024/01/28 13:32:36;;;;;;;2.85;2.00;;;;;;;;;;4969899;28;20082;-76
2024/01/28 13:35:03;;;;;;;4.70;2.00;;;;;;;;;;4971275;28;20122;-75
2024/01/28 13:37:28;;;;;;;4.88;1.80;;;;;;;;;;4972589;28;20122;-75
2024/01/28 13:39:54;;;;;;;4.20;1.80;;;;;;;;;;4972851;28;20099;-75
2024/01/28 13:42:20;;;;;;;4.20;2.05;;;;;;;;;;4972706;28;20031;-76
2024/01/28 13:44:45;;;;;;;3.15;2.00;;;;;;;;;;4972919;28;20103;-77
2024/01/28 13:47:11;;;;;;;5.70;1.80;;;;;;;;;;4972869;28;20046;-77
2024/01/28 13:49:37;;;;;;;3.47;1.75;;;;;;;;;;4975182;28;20412;-76
2024/01/28 13:52:04;;;;;;;5.93;2.40;;;;;;;;;;4973866;28;20030;-75
2024/01/28 13:54:30;;;;;;;2.90;1.90;;;;;;;;;;4975461;28;20038;-77
2024/01/28 13:56:56;;;;;;;4.82;1.85;;;;;;;;;;4973716;28;20027;-77
2024/01/28 13:59:22;;;;;;;4.03;1.88;;;;;;;;;;4973782;28;20031;-75
2024/01/28 14:01:48;;;;;;;5.50;1.90;;;;;;;;;;4972757;28;20039;-74
2024/01/28 14:04:13;;;;;;;5.75;2.15;;;;;;;;;;4976801;28;20482;-75
2024/01/28 14:06:39;;;;;;;3.85;1.88;;;;;;;;;;4976285;28;20031;-74
2024/01/28 14:09:05;;;;;;;3.28;2.05;;;;;;;;;;4977118;28;20498;-74
2024/01/28 14:11:30;;;;;;;3.60;1.88;;;;;;;;;;4977744;28;20035;-75
2024/01/28 14:13:56;;;;;;;4.07;2.17;;;;;;;;;;4977493;28;20027;-75
2024/01/28 14:16:24;;;;;;;3.75;2.10;;;;;;;;;;4977441;28;20027;-75
2024/01/28 14:18:49;;;;;;;5.40;2.13;;;;;;;;;;4976549;28;20026;-75
2024/01/28 14:21:16;;;;;;;4.53;2.22;;;;;;;;;;4977563;28;20034;-75
2024/01/28 14:23:42;;;;;;;3.63;1.80;;;;;;;;;;4977349;28;20034;-74
2024/01/28 14:26:07;;;;;;;2.03;1.73;;;;;;;;;;4977310;28;20023;-73
2024/01/28 14:28:33;;;;;;;2.35;1.92;;;;;;;;;;4977262;28;20098;-74
2024/01/28 14:30:58;;;;;;;2.42;2.00;;;;;;;;;;4977099;28;20026;-73
2024/01/28 14:33:24;;;;;;;3.00;1.80;;;;;;;;;;4977143;28;20030;-74
2024/01/28 14:35:51;;;;;;;4.75;2.10;;;;;;;;;;4976883;28;20042;-74
2024/01/28 14:38:16;;;;;;;3.38;1.90;;;;;;;;;;4977073;28;20030;-74
2024/01/28 14:40:42;;;;;;;3.20;1.95;;;;;;;;;;4977053;28;20023;-74
2024/01/28 14:43:08;;;;;;;3.72;2.03;;;;;;;;;;4976891;28;20030;-74
2024/01/28 14:45:33;;;;;;;3.42;1.75;;;;;;;;;;4977158;28;20024;-74
2024/01/28 14:47:59;;;;;;;3.53;1.90;;;;;;;;;;4976836;28;20026;-74
2024/01/28 14:50:26;;;;;;;4.10;1.90;;;;;;;;;;4976715;28;20106;-73
2024/01/28 14:52:52;;;;;;;3.50;1.98;;;;;;;;;;4976714;28;20038;-73
2024/01/28 14:55:18;;;;;;;3.92;1.88;;;;;;;;;;4977029;28;20030;-74
2024/01/28 14:57:44;;;;;;;2.03;1.70;;;;;;;;;;4976866;28;20160;-74
2024/01/28 15:00:10;;;;;;;4.93;1.70;;;;;;;;;;4976695;28;20110;-74
2024/01/28 15:02:35;;;;;;;3.70;2.00;;;;;;;;;;4976656;28;20512;-74
2024/01/28 15:05:05;;;;;;;3.60;1.88;;;;;;;;;;4975258;28;20170;-74
2024/01/28 15:07:34;;;;;;;3.80;2.05;;;;;;;;;;4976606;28;20031;-74
2024/01/28 15:09:59;;;;;;;4.53;1.92;;;;;;;;;;4976826;28;20022;-75
2024/01/28 15:12:25;;;;;;;2.60;1.80;;;;;;;;;;4976340;28;20035;-75
2024/01/28 15:14:50;;;;;;;3.75;2.05;;;;;;;;;;4975981;28;20027;-75
2024/01/28 15:17:16;;;;;;;3.42;1.75;;;;;;;;;;4975144;28;20138;-75
2024/01/28 15:19:42;;;;;;;3.40;2.08;;;;;;;;;;4976278;28;20033;-75
2024/01/28 15:22:07;;;;;;;2.70;1.60;;;;;;;;;;4976307;28;20360;-75
2024/01/28 15:24:34;;;;;;;3.30;1.92;;;;;;;;;;4976219;28;20066;-74
2024/01/28 15:26:59;;;;;;;1.95;1.67;;;;;;;;;;4976211;28;20031;-74
2024/01/28 15:29:25;;;;;;;2.42;2.00;;;;;;;;;;4976188;28;20019;-74
2024/01/28 15:31:50;;;;;;;2.70;2.00;;;;;;;;;;4976003;28;20495;-74
2024/01/28 15:34:16;;;;;;;3.30;1.80;;;;;;;;;;4975835;28;20026;-74
2024/01/28 15:36:42;;;;;;;3.00;1.98;;;;;;;;;;4976040;28;20089;-74
2024/01/28 15:39:09;;;;;;;1.92;1.70;;;;;;;;;;4975986;28;20031;-74
2024/01/28 15:41:35;;;;;;;3.00;2.10;;;;;;;;;;4975926;28;20066;-74
2024/01/28 15:44:00;;;;;;;2.30;1.63;;;;;;;;;;4975901;28;20051;-74
2024/01/28 15:46:27;;;;;;;2.17;1.80;;;;;;;;;;4975823;28;20035;-74
2024/01/28 15:48:54;;;;;;;2.20;1.77;;;;;;;;;;4975819;28;20023;-74
2024/01/28 15:51:19;;;;;;;2.47;1.73;;;;;;;;;;4975699;28;20027;-74
2024/01/28 15:53:45;;;;;;;2.55;1.85;;;;;;;;;;4975613;28;20395;-74
2024/01/28 15:56:11;;;;;;;2.85;1.73;;;;;;;;;;4975698;28;20096;-74
2024/01/28 15:58:37;;;;;;;3.10;1.73;;;;;;;;;;4975572;28;20015;-74
2024/01/28 16:01:04;;;;;;;3.22;1.77;;;;;;;;;;4975531;28;20031;-74
2024/01/28 16:03:30;;;;;;;2.60;1.85;;;;;;;;;;4974278;28;20055;-74
2024/01/28 16:05:56;;;;;;;2.75;1.85;;;;;;;;;;4975507;28;20495;-74
2024/01/28 16:08:22;;;;;;;4.93;1.90;;;;;;;;;;4975320;28;20034;-74
2024/01/28 16:10:48;;;;;;;4.65;2.10;;;;;;;;;;4975625;28;20391;-74
2024/01/28 16:13:14;;;;;;;3.22;1.90;;;;;;;;;;4975339;28;20029;-74
2024/01/28 16:15:40;;;;;;;3.45;2.00;;;;;;;;;;4975246;28;20031;-74
2024/01/28 16:18:06;;;;;;;2.40;1.70;;;;;;;;;;4973946;28;20023;-74
2024/01/28 16:20:31;;;;;;;2.75;1.67;;;;;;;;;;4975257;28;20030;-74
2024/01/28 16:22:58;;;;;;;2.75;1.90;;;;;;;;;;4975160;28;20023;-74
2024/01/28 16:25:29;;;;;;;5.05;1.98;;;;;;;;;;4974332;28;20029;-74
2024/01/28 16:27:58;;;;;;;3.63;2.25;;;;;;;;;;4975100;28;20027;-74
2024/01/28 16:30:25;;;;;;;4.07;2.27;;;;;;;;;;4974976;28;20023;-74
2024/01/28 16:32:50;;;;;;;2.50;1.90;;;;;;;;;;4975187;28;20035;-74
2024/01/28 16:35:17;;;;;;;3.17;1.90;;;;;;;;;;4974801;28;20061;-74
2024/01/28 16:37:42;;;;;;;3.28;1.95;;;;;;;;;;4973602;28;20483;-74
2024/01/28 16:40:08;;;;;;;2.10;1.90;;;;;;;;;;4974838;28;20027;-74
2024/01/28 16:42:38;;;;;;;2.25;1.90;;;;;;;;;;4973510;28;20514;-74
2024/01/28 16:45:04;;;;;;;3.53;1.88;;;;;;;;;;4974724;28;20113;-74
2024/01/28 16:47:30;;;;;;;3.00;1.90;;;;;;;;;;4974742;28;20102;-74
2024/01/28 16:49:55;;;;;;;2.08;1.80;;;;;;;;;;4974709;28;20019;-74
2024/01/28 16:52:21;;;;;;;2.33;1.60;;;;;;;;;;4974557;28;20476;-74
2024/01/28 16:54:47;;;;;;;2.60;2.03;;;;;;;;;;4974630;28;20034;-74
2024/01/28 16:57:12;;;;;;;3.42;1.95;;;;;;;;;;4974531;28;20371;-74
2024/01/28 16:59:38;;;;;;;2.80;2.10;;;;;;;;;;4974434;28;20031;-74
2024/01/28 17:02:05;;;;;;;2.72;1.90;;;;;;;;;;4974501;28;20030;-74
2024/01/28 17:04:30;;;;;;;2.65;1.90;;;;;;;;;;4974381;28;20033;-74
2024/01/28 17:06:56;;;;;;;2.45;2.08;;;;;;;;;;4974365;28;20105;-75
2024/01/28 17:09:22;;;;;;;2.63;2.40;;;;;;;;;;4974378;28;20035;-74
2024/01/28 17:11:48;;;;;;;3.75;2.50;;;;;;;;;;4974199;28;20038;-74
2024/01/28 17:14:16;;;;;;;3.03;2.28;;;;;;;;;;4974127;28;20047;-74
2024/01/28 17:16:42;;;;;;;3.30;2.28;;;;;;;;;;4974123;28;20044;-74
2024/01/28 17:19:08;;;;;;;2.88;2.25;;;;;;;;;;4972818;28;20026;-74
2024/01/28 17:21:34;;;;;;;4.25;2.60;;;;;;;;;;4974053;28;20110;-74
2024/01/28 17:24:00;;;;;;;3.90;2.75;;;;;;;;;;4974097;28;20027;-74
2024/01/28 17:26:27;;;;;;;4.85;2.88;;;;;;;;;;4974258;28;20113;-74
2024/01/28 17:28:55;;;;;;;3.88;2.80;;;;;;;;;;4974536;28;20031;-74
2024/01/28 17:31:20;;;;;;;4.07;3.17;;;;;;;;;;4974116;28;20476;-74
2024/01/28 17:33:46;;;;;;;6.28;3.50;;;;;;;;;;4973869;28;20054;-75
2024/01/28 17:36:12;;;;;;;5.25;3.30;;;;;;;;;;4974104;28;20130;-75
2024/01/28 17:38:38;;;;;;;7.05;3.92;;;;;;;;;;4972710;28;20035;-76
2024/01/28 17:41:03;;;;;;;6.78;3.97;;;;;;;;;;4969851;28;20066;-76
2024/01/28 17:43:29;;;;;;;6.80;3.50;;;;;;;;;;4967556;28;20019;-78
2024/01/28 17:45:55;;;;;;;6.05;3.47;;;;;;;;;;4964664;28;20022;-76
2024/01/28 17:48:20;;;;;;;5.03;3.75;;;;;;;;;;4967046;28;20029;-75
2024/01/28 17:50:46;;;;;;;5.47;3.20;;;;;;;;;;4965365;28;20484;-75
2024/01/28 17:53:11;;;;;;;9.27;3.60;;;;;;;;;;4975055;28;20039;-77
2024/01/28 17:55:38;;;;;;;6.32;4.07;;;;;;;;;;4973659;28;20022;-74
2024/01/28 17:58:03;;;;;;;6.22;3.65;;;;;;;;;;4962218;28;20023;-75
2024/01/28 18:00:29;;;;;;;5.80;3.88;;;;;;;;;;4953310;28;20050;-74
2024/01/28 18:02:55;;;;;;;6.13;3.75;;;;;;;;;;4954152;28;20031;-74
2024/01/28 18:05:20;;;;;;;9.65;3.33;;;;;;;;;;4954025;28;20035;-73
2024/01/28 18:07:50;;;;;;;6.60;3.80;;;;;;;;;;4954372;28;20034;-74
2024/01/28 18:10:17;;;;;;;4.53;3.38;;;;;;;;;;4953114;29;20027;-75
2024/01/28 18:12:43;;;;;;;6.10;3.63;;;;;;;;;;4957689;28;20070;-74
2024/01/28 18:15:09;;;;;;;6.47;3.60;;;;;;;;;;4973530;28;20077;-73
2024/01/28 18:17:35;;;;;;;7.28;4.10;;;;;;;;;;4972997;28;20416;-73
2024/01/28 18:20:02;;;;;;;5.68;3.70;;;;;;;;;;4973323;28;20040;-74
2024/01/28 18:22:27;;;;;;;5.85;3.60;;;;;;;;;;4973454;28;20044;-73
2024/01/28 18:24:53;;;;;;;5.75;3.40;;;;;;;;;;4973347;28;20139;-73
2024/01/28 18:27:18;;;;;;;5.38;3.63;;;;;;;;;;4970642;28;20086;-74
2024/01/28 18:29:44;;;;;;;4.38;3.55;;;;;;;;;;4964612;28;20131;-72
2024/01/28 18:32:09;;;;;;;8.45;3.55;;;;;;;;;;4969223;28;20037;-72
2024/01/28 18:34:35;;;;;;;4.78;3.72;;;;;;;;;;4972280;28;20050;-72
2024/01/28 18:37:00;;;;;;;4.88;3.75;;;;;;;;;;4973313;28;20043;-73
2024/01/28 18:39:26;;;;;;;5.10;3.58;;;;;;;;;;4973543;28;20054;-73
2024/01/28 18:41:51;;;;;;;6.85;4.20;;;;;;;;;;4972361;28;20050;-74
2024/01/28 18:44:21;;;;;;;6.63;3.47;;;;;;;;;;4967541;28;20046;-74
2024/01/28 18:46:46;;;;;;;4.65;3.55;;;;;;;;;;4973502;28;20034;-75
2024/01/28 18:49:12;;;;;;;4.60;3.60;;;;;;;;;;4974940;28;20357;-74
2024/01/28 18:51:37;;;;;;;5.38;3.60;;;;;;;;;;4976848;28;20053;-73
2024/01/28 18:54:03;;;;;;;5.47;3.38;;;;;;;;;;4976491;28;20030;-73
2024/01/28 18:56:29;;;;;;;4.32;3.20;;;;;;;;;;4966961;28;20495;-74
2024/01/28 18:58:55;;;;;;;5.88;3.45;;;;;;;;;;4957437;29;20082;-74
2024/01/28 19:01:20;;;;;;;7.43;3.60;;;;;;;;;;4957405;28;20031;-73
2024/01/28 19:03:46;;;;;;;6.57;3.42;;;;;;;;;;4957335;28;20147;-75
2024/01/28 19:06:14;;;;;;;4.75;3.63;;;;;;;;;;4956276;29;20416;-75
2024/01/28 19:08:40;;;;;;;7.25;3.55;;;;;;;;;;4961901;28;20037;-75
2024/01/28 19:11:05;;;;;;;4.05;3.25;;;;;;;;;;4962499;28;20500;-74
2024/01/28 19:13:32;;;;;;;5.03;3.55;;;;;;;;;;4955783;29;20035;-73
2024/01/28 19:15:58;;;;;;;4.45;3.60;;;;;;;;;;4969494;28;20129;-74
2024/01/28 19:18:25;;;;;;;4.65;3.25;;;;;;;;;;4973866;28;20145;-73
2024/01/28 19:20:51;;;;;;;4.05;3.63;;;;;;;;;;4966653;28;20035;-74
2024/01/28 19:23:18;;;;;;;5.63;3.70;;;;;;;;;;4967365;28;20117;-73
2024/01/28 19:25:43;;;;;;;7.35;4.13;;;;;;;;;;4968505;28;20515;-73
2024/01/28 19:28:09;;;;;;;5.35;3.92;;;;;;;;;;4976338;28;20109;-72
2024/01/28 19:30:34;;;;;;;5.47;3.65;;;;;;;;;;4969249;28;20114;-73
2024/01/28 19:33:00;;;;;;;4.75;3.55;;;;;;;;;;4965152;28;20471;-74
2024/01/28 19:35:25;;;;;;;5.10;3.72;;;;;;;;;;4970899;28;20053;-75
2024/01/28 19:37:51;;;;;;;5.50;3.88;;;;;;;;;;4976659;28;20064;-72
2024/01/28 19:40:17;;;;;;;4.18;3.22;;;;;;;;;;4977346;28;20543;-72
2024/01/28 19:42:44;;;;;;;5.63;3.67;;;;;;;;;;4975822;28;20035;-72
2024/01/28 19:45:10;;;;;;;4.95;3.45;;;;;;;;;;4975943;28;20374;-72
2024/01/28 19:47:35;;;;;;;5.55;3.88;;;;;;;;;;4967912;28;20023;-73
2024/01/28 19:50:03;;;;;;;5.47;3.85;;;;;;;;;;4966918;28;20038;-72
2024/01/28 19:52:28;;;;;;;9.77;3.60;;;;;;;;;;4965482;28;20381;-73
2024/01/28 19:54:54;;;;;;;5.38;3.30;;;;;;;;;;4964303;28;20033;-73
2024/01/28 19:57:19;;;;;;;7.45;3.80;;;;;;;;;;4965721;28;20019;-75
2024/01/28 19:59:45;;;;;;;4.40;3.25;;;;;;;;;;4964412;28;20492;-73
2024/01/28 20:02:11;;;;;;;9.52;3.90;;;;;;;;;;4974529;28;20029;-73
2024/01/28 20:04:36;;;;;;;6.40;3.70;;;;;;;;;;4960829;28;20023;-75
2024/01/28 20:07:02;;;;;;;6.70;3.67;;;;;;;;;;4957835;28;20031;-76
2024/01/28 20:09:28;;;;;;;5.65;3.83;;;;;;;;;;4961619;29;20031;-77
2024/01/28 20:11:53;;;;;;;6.53;4.20;;;;;;;;;;4976576;28;20031;-77
2024/01/28 20:14:19;;;;;;;5.57;3.97;;;;;;;;;;4978754;28;20411;-77
2024/01/28 20:16:45;;;;;;;6.80;4.13;;;;;;;;;;4977981;28;20452;-77
2024/01/28 20:19:17;;;;;;;5.35;3.70;;;;;;;;;;4986266;28;20062;-75
2024/01/28 20:21:42;;;;;;;7.95;4.25;;;;;;;;;;4983522;28;20050;-75
2024/01/28 20:24:08;;;;;;;5.13;3.88;;;;;;;;;;4979049;28;20085;-75
2024/01/28 20:26:33;;;;;;;4.82;3.70;;;;;;;;;;4967533;28;20027;-75
2024/01/28 20:28:59;;;;;;;6.95;3.97;;;;;;;;;;4974037;28;20023;-75
2024/01/28 20:31:25;;;;;;;7.43;4.20;;;;;;;;;;4967886;28;20027;-76
2024/01/28 20:33:51;;;;;;;6.22;4.07;;;;;;;;;;4966275;28;20384;-75
2024/01/28 20:36:19;;;;;;;5.05;3.80;;;;;;;;;;4965158;28;20054;-76
2024/01/28 20:38:45;;;;;;;7.30;3.90;;;;;;;;;;4961806;28;20027;-76
2024/01/28 20:41:12;;;;;;;5.72;3.78;;;;;;;;;;4962260;28;20027;-75
2024/01/28 20:43:37;;;;;;;5.45;3.80;;;;;;;;;;4963712;28;20046;-76
2024/01/28 20:46:03;;;;;;;6.63;3.90;;;;;;;;;;4965713;28;20059;-75
2024/01/28 20:48:29;;;;;;;5.32;3.88;;;;;;;;;;4963702;28;20019;-74
2024/01/28 20:50:55;;;;;;;5.95;4.00;;;;;;;;;;4959394;28;20031;-74
2024/01/28 20:53:21;;;;;;;5.93;4.13;;;;;;;;;;4954053;29;20039;-75
2024/01/28 20:55:48;;;;;;;5.80;3.78;;;;;;;;;;4955305;29;20082;-75
2024/01/28 20:58:14;;;;;;;6.28;4.00;;;;;;;;;;4955043;28;20379;-74
2024/01/28 21:00:39;;;;;;;7.07;3.95;;;;;;;;;;4955658;28;20027;-75
2024/01/28 21:03:05;;;;;;;6.68;4.70;;;;;;;;;;4956811;28;20019;-77
2024/01/28 21:05:31;;;;;;;7.45;4.40;;;;;;;;;;4961055;28;20027;-73
2024/01/28 21:07:56;;;;;;;7.68;4.13;;;;;;;;;;4966794;28;20027;-75
2024/01/28 21:10:23;;;;;;;8.07;4.55;;;;;;;;;;4961194;28;20114;-77
2024/01/28 21:12:49;;;;;;;7.25;4.10;;;;;;;;;;4957516;28;20035;-76
2024/01/28 21:15:15;;;;;;;6.22;4.25;;;;;;;;;;4964551;28;20102;-76
2024/01/28 21:17:41;;;;;;;7.20;4.43;;;;;;;;;;4968824;28;20027;-76
2024/01/28 21:20:07;;;;;;;6.40;4.18;;;;;;;;;;4968964;28;20091;-76
2024/01/28 21:22:33;;;;;;;5.32;4.25;;;;;;;;;;4964197;28;20027;-77
2024/01/28 21:24:59;;;;;;;8.75;4.40;;;;;;;;;;4964621;28;20063;-76
2024/01/28 21:27:24;;;;;;;5.85;4.50;;;;;;;;;;4966352;28;20027;-78
2024/01/28 21:29:50;;;;;;;9.18;4.30;;;;;;;;;;4961220;28;20026;-76
2024/01/28 21:32:16;;;;;;;5.95;4.10;;;;;;;;;;4957333;28;20082;-76
2024/01/28 21:34:41;;;;;;;6.18;4.47;;;;;;;;;;4958078;28;20071;-77
2024/01/28 21:37:07;;;;;;;7.88;4.35;;;;;;;;;;4957555;28;20456;-76
2024/01/28 21:39:33;;;;;;;8.52;4.50;;;;;;;;;;4958366;29;20027;-76
2024/01/28 21:41:59;;;;;;;7.20;4.68;;;;;;;;;;4958205;28;20101;-76
2024/01/28 21:44:25;;;;;;;9.07;4.70;;;;;;;;;;4957568;28;20066;-76
2024/01/28 21:46:51;;;;;;;6.82;4.50;;;;;;;;;;4956678;28;20547;-76
2024/01/28 21:49:16;;;;;;;10.80;4.72;;;;;;;;;;4965405;29;20070;-76
2024/01/28 21:51:42;;;;;;;6.55;4.40;;;;;;;;;;4971607;28;20020;-74
2024/01/28 21:54:08;;;;;;;9.07;4.80;;;;;;;;;;4959713;28;20050;-75
2024/01/28 21:56:33;;;;;;;8.00;4.97;;;;;;;;;;4963151;28;20106;-76
2024/01/28 21:58:59;;;;;;;8.73;4.80;;;;;;;;;;4959400;28;20388;-75
2024/01/28 22:01:24;;;;;;;7.30;4.78;;;;;;;;;;4957443;28;20038;-76
2024/01/28 22:03:50;;;;;;;8.27;4.90;;;;;;;;;;4957574;28;20071;-72
2024/01/28 22:06:15;;;;;;;9.43;4.57;;;;;;;;;;4956293;28;20083;-76
2024/01/28 22:08:41;;;;;;;11.30;5.03;;;;;;;;;;4956682;28;20027;-74
2024/01/28 22:11:06;;;;;;;11.10;5.30;;;;;;;;;;4955112;28;20032;-74
2024/01/28 22:13:32;;;;;;;6.97;4.70;;;;;;;;;;4955312;28;20476;-77
2024/01/28 22:15:57;;;;;;;7.82;4.50;;;;;;;;;;4955935;28;20035;-74
2024/01/28 22:18:23;;;;;;;7.32;4.60;;;;;;;;;;4956800;28;20053;-77
2024/01/28 22:20:49;;;;;;;8.30;4.88;;;;;;;;;;4964054;28;20027;-76
2024/01/28 22:23:14;;;;;;;7.28;4.50;;;;;;;;;;4961989;28;20035;-76
2024/01/28 22:25:40;;;;;;;7.90;4.75;;;;;;;;;;4967529;28;20031;-76
2024/01/28 22:28:05;;;;;;;6.85;4.85;;;;;;;;;;4960760;28;20031;-74
2024/01/28 22:30:32;;;;;;;6.90;4.68;;;;;;;;;;4974616;28;20045;-73
2024/01/28 22:32:58;;;;;;;8.45;4.60;;;;;;;;;;4977099;28;20026;-74
2024/01/28 22:35:23;;;;;;;7.97;4.88;;;;;;;;;;4976844;28;20105;-73
2024/01/28 22:37:49;;;;;;;11.00;5.55;;;;;;;;;;4976726;28;20031;-72
2024/01/28 22:40:15;;;;;;;6.60;4.97;;;;;;;;;;4977077;28;20035;-72
2024/01/28 22:42:41;;;;;;;6.80;4.97;;;;;;;;;;4976960;28;20031;-74
2024/01/28 22:45:08;;;;;;;9.80;5.03;;;;;;;;;;4976872;28;20375;-72
2024/01/28 22:47:34;;;;;;;7.80;5.05;;;;;;;;;;4976822;28;20023;-73
2024/01/28 22:50:00;;;;;;;7.03;4.80;;;;;;;;;;4976434;28;20034;-73
2024/01/28 22:52:27;;;;;;;7.50;4.90;;;;;;;;;;4976749;28;20383;-73
2024/01/28 22:54:54;;;;;;;8.63;5.50;;;;;;;;;;4976631;28;20031;-75
2024/01/28 22:57:20;;;;;;;10.10;5.65;;;;;;;;;;4976865;28;20031;-75
2024/01/28 22:59:46;;;;;;;12.57;5.38;;;;;;;;;;4976341;28;20097;-75
2024/01/28 23:02:22;;;;;;;7.00;5.28;;;;;;;;;;4976787;28;20035;-74
2024/01/28 23:04:49;;;;;;;7.00;5.10;;;;;;;;;;4969684;28;20089;-73
2024/01/28 23:07:14;;;;;;;10.95;4.90;;;;;;;;;;4967660;28;20023;-74
2024/01/28 23:09:40;;;;;;;16.15;5.72;;;;;;;;;;4974416;28;20030;-77
2024/01/28 23:12:06;;;;;;;6.43;5.25;;;;;;;;;;4971166;28;20488;-74
2024/01/28 23:14:32;;;;;;;9.60;5.30;;;;;;;;;;4967558;28;20660;-74
2024/01/28 23:16:58;;;;;;;6.85;5.00;;;;;;;;;;4976394;28;20077;-74
2024/01/28 23:19:23;;;;;;;7.60;5.00;;;;;;;;;;4976998;28;20030;-73
2024/01/28 23:21:49;;;;;;;11.15;5.28;;;;;;;;;;4976377;28;20522;-71
2024/01/28 23:24:15;;;;;;;10.25;5.55;;;;;;;;;;4976186;28;20097;-72
2024/01/28 23:26:40;;;;;;;11.25;5.32;;;;;;;;;;4976471;28;20034;-71
2024/01/28 23:29:06;;;;;;;8.25;5.35;;;;;;;;;;4976256;28;20559;-72
2024/01/28 23:31:32;;;;;;;8.27;5.22;;;;;;;;;;4974001;28;20022;-74
2024/01/28 23:34:01;;;;;;;9.80;6.20;;;;;;;;;;4973759;28;20114;-73
2024/01/28 23:36:31;;;;;;;7.43;4.85;;;;;;;;;;4974611;28;20038;-73
2024/01/28 23:38:57;;;;;;;8.63;5.53;;;;;;;;;;4975614;28;20031;-71
2024/01/28 23:41:24;;;;;;;11.38;6.00;;;;;;;;;;4976268;28;20352;-71
2024/01/28 23:43:50;;;;;;;8.70;5.47;;;;;;;;;;4962167;28;20027;-75
2024/01/28 23:46:16;;;;;;;7.45;5.47;;;;;;;;;;4955568;28;20384;-73
2024/01/28 23:48:42;;;;;;;8.80;5.07;;;;;;;;;;4956650;29;20053;-73
2024/01/28 23:51:07;;;;;;;7.35;5.30;;;;;;;;;;4955633;28;20448;-72
2024/01/28 23:53:33;;;;;;;5.97;4.63;;;;;;;;;;4955427;29;20106;-73
2024/01/28 23:55:58;;;;;;;8.38;5.25;;;;;;;;;;4955648;28;20068;-73
2024/01/28 23:58:24;;;;;;;8.90;5.05;;;;;;;;;;4956289;28;20479;-72
